createdAt,value
2018-03-17T00:01:56.055Z,26.90
2018-03-17T00:04:24.544Z,26.60
2018-03-17T00:06:53.040Z,24.30
2018-03-17T00:09:20.740Z,24.83
2018-03-17T00:11:48.491Z,24.30
2018-03-17T00:14:16.211Z,22.93
2018-03-17T00:16:43.893Z,24.10
2018-03-17T00:19:12.372Z,26.10
2018-03-17T00:21:40.090Z,29.93
2018-03-17T00:24:07.804Z,26.87
2018-03-17T00:26:36.236Z,26.60
2018-03-17T00:29:03.903Z,27.10
2018-03-17T00:31:31.652Z,28.80
2018-03-17T00:33:59.313Z,27.30
2018-03-17T00:36:27.003Z,28.33
2018-03-17T00:38:54.716Z,27.87
2018-03-17T00:41:23.149Z,33.97
2018-03-17T00:43:50.858Z,29.97
2018-03-17T00:46:19.397Z,29.33
2018-03-17T00:48:47.095Z,29.10
2018-03-17T00:51:14.773Z,29.60
2018-03-17T00:53:43.204Z,27.30
2018-03-17T00:56:10.962Z,26.40
2018-03-17T00:58:38.675Z,26.03
2018-03-17T01:01:06.349Z,26.50
2018-03-17T01:03:34.098Z,28.50
2018-03-17T01:06:01.830Z,28.20
2018-03-17T01:08:29.498Z,30.80
2018-03-17T01:10:57.292Z,47.90
2018-03-17T01:13:24.972Z,29.80
2018-03-17T01:15:53.471Z,40.93
2018-03-17T01:18:21.168Z,31.23
2018-03-17T01:20:48.868Z,32.33
2018-03-17T01:23:16.772Z,30.50
2018-03-17T01:25:44.451Z,32.20
2018-03-17T01:28:12.264Z,32.50
2018-03-17T01:30:40.002Z,38.80
2018-03-17T01:33:07.660Z,31.23
2018-03-17T01:35:35.366Z,37.50
2018-03-17T01:38:03.093Z,26.60
2018-03-17T01:40:30.847Z,39.90
2018-03-17T01:42:58.575Z,23.63
2018-03-17T01:45:26.308Z,27.80
2018-03-17T01:47:53.984Z,29.03
2018-03-17T01:50:21.676Z,27.40
2018-03-17T01:52:49.365Z,23.40
2018-03-17T01:55:17.042Z,27.00
2018-03-17T01:57:44.732Z,28.07
2018-03-17T02:00:12.548Z,37.43
2018-03-17T02:02:40.982Z,26.73
2018-03-17T02:05:08.712Z,25.33
2018-03-17T02:07:36.454Z,36.23
2018-03-17T02:10:05.000Z,32.20
2018-03-17T02:12:32.732Z,36.40
2018-03-17T02:15:00.466Z,36.27
2018-03-17T02:17:28.159Z,35.30
2018-03-17T02:19:55.876Z,41.23
2018-03-17T02:22:23.603Z,35.03
2018-03-17T02:24:51.349Z,36.90
2018-03-17T02:27:19.086Z,34.67
2018-03-17T02:29:46.898Z,35.10
2018-03-17T02:32:14.621Z,33.40
2018-03-17T02:34:42.356Z,40.03
2018-03-17T02:37:10.109Z,39.40
2018-03-17T02:39:37.913Z,33.13
2018-03-17T02:42:05.639Z,39.27
2018-03-17T02:44:33.464Z,32.33
2018-03-17T02:49:34.748Z,33.93
2018-03-17T02:52:02.587Z,36.80
2018-03-17T02:54:30.308Z,34.23
2018-03-17T02:56:58.044Z,37.30
2018-03-17T02:59:25.756Z,33.80
2018-03-17T03:01:53.515Z,34.70
2018-03-17T03:04:21.302Z,34.43
2018-03-17T03:06:49.093Z,31.27
2018-03-17T03:09:16.807Z,28.00
2018-03-17T03:11:44.537Z,33.03
2018-03-17T03:14:13.057Z,33.00
2018-03-17T03:16:41.623Z,34.53
2018-03-17T03:19:09.364Z,29.80
2018-03-17T03:21:37.850Z,29.00
2018-03-17T03:24:05.753Z,30.13
2018-03-17T03:26:33.486Z,28.10
2018-03-17T03:29:01.264Z,35.73
2018-03-17T03:31:29.836Z,20.97
2018-03-17T03:33:57.605Z,20.10
2018-03-17T03:36:25.396Z,26.80
2018-03-17T03:38:53.204Z,24.27
2018-03-17T03:41:20.933Z,26.00
2018-03-17T03:43:48.659Z,27.83
2018-03-17T03:46:16.454Z,17.70
2018-03-17T03:48:44.297Z,14.10
2018-03-17T03:51:12.033Z,11.83
2018-03-17T03:53:39.759Z,13.10
2018-03-17T03:56:07.575Z,13.77
2018-03-17T03:58:35.360Z,14.67
2018-03-17T04:01:03.145Z,12.97
2018-03-17T04:03:30.910Z,16.30
2018-03-17T04:05:58.652Z,11.67
2018-03-17T04:08:26.447Z,16.03
2018-03-17T04:10:54.263Z,12.47
2018-03-17T04:13:22.040Z,11.90
2018-03-17T04:15:49.762Z,11.13
2018-03-17T04:18:17.541Z,10.73
2018-03-17T04:20:45.295Z,10.57
2018-03-17T04:23:13.085Z,8.90
2018-03-17T04:25:40.924Z,10.17
2018-03-17T04:28:08.725Z,9.00
2018-03-17T04:30:36.429Z,9.27
2018-03-17T04:33:04.255Z,9.90
2018-03-17T04:35:31.981Z,10.13
2018-03-17T04:38:00.507Z,9.13
2018-03-17T04:40:28.247Z,8.03
2018-03-17T04:42:56.042Z,8.33
2018-03-17T04:45:23.859Z,7.47
2018-03-17T04:47:51.616Z,7.97
2018-03-17T04:50:19.407Z,8.10
2018-03-17T04:52:47.215Z,7.20
2018-03-17T04:55:14.990Z,8.00
2018-03-17T04:57:42.710Z,8.00
2018-03-17T05:00:10.470Z,6.80
2018-03-17T05:02:38.398Z,6.13
2018-03-17T05:05:06.132Z,8.03
2018-03-17T05:07:33.903Z,7.73
2018-03-17T05:10:01.701Z,8.90
2018-03-17T05:12:29.431Z,7.70
2018-03-17T05:14:57.247Z,7.50
2018-03-17T05:17:25.042Z,7.80
2018-03-17T05:19:52.787Z,11.83
2018-03-17T05:22:20.589Z,8.90
2018-03-17T05:24:48.681Z,10.03
2018-03-17T05:27:16.468Z,10.00
2018-03-17T05:29:44.229Z,10.40
2018-03-17T05:32:12.001Z,11.33
2018-03-17T05:34:39.817Z,9.73
2018-03-17T05:37:07.582Z,10.17
2018-03-17T05:39:35.342Z,10.87
2018-03-17T05:42:03.066Z,11.53
2018-03-17T05:44:30.820Z,10.93
2018-03-17T05:46:58.593Z,10.50
2018-03-17T05:49:26.406Z,10.50
2018-03-17T05:51:54.135Z,9.90
2018-03-17T05:54:21.921Z,11.10
2018-03-17T05:56:49.712Z,10.57
2018-03-17T05:59:17.507Z,9.87
2018-03-17T06:01:45.251Z,9.80
2018-03-17T06:04:12.996Z,12.60
2018-03-17T06:06:40.769Z,11.77
2018-03-17T06:09:08.478Z,11.40
2018-03-17T06:11:36.244Z,10.87
2018-03-17T06:14:04.070Z,16.73
2018-03-17T06:16:31.874Z,11.37
2018-03-17T06:18:59.650Z,11.70
2018-03-17T06:21:27.534Z,11.60
2018-03-17T06:23:55.275Z,9.40
2018-03-17T06:26:23.053Z,10.77
2018-03-17T06:28:50.811Z,10.03
2018-03-17T06:31:18.582Z,9.37
2018-03-17T06:33:46.349Z,9.47
2018-03-17T06:36:14.109Z,10.80
2018-03-17T06:38:41.939Z,9.47
2018-03-17T06:41:09.712Z,10.83
2018-03-17T06:43:37.460Z,10.83
2018-03-17T06:46:05.279Z,10.13
2018-03-17T06:48:33.002Z,11.50
2018-03-17T06:51:01.927Z,13.00
2018-03-17T06:53:29.689Z,14.00
2018-03-17T06:55:57.483Z,12.23
2018-03-17T06:58:29.872Z,16.00
2018-03-17T07:00:57.644Z,13.90
2018-03-17T07:03:25.387Z,14.07
2018-03-17T07:05:53.135Z,14.00
2018-03-17T07:08:20.916Z,14.43
2018-03-17T07:10:48.665Z,17.70
2018-03-17T07:13:17.076Z,17.13
2018-03-17T07:15:44.843Z,18.30
2018-03-17T07:18:14.335Z,16.30
2018-03-17T07:20:42.699Z,15.00
2018-03-17T07:23:11.391Z,16.20
2018-03-17T07:25:39.634Z,16.50
2018-03-17T07:28:07.463Z,16.80
2018-03-17T07:30:35.271Z,16.67
2018-03-17T07:33:03.098Z,14.80
2018-03-17T07:35:33.198Z,16.97
2018-03-17T07:38:01.059Z,15.47
2018-03-17T07:40:29.637Z,16.90
2018-03-17T07:42:57.424Z,17.50
2018-03-17T07:45:25.737Z,16.90
2018-03-17T07:47:53.857Z,18.30
2018-03-17T07:50:21.961Z,16.70
2018-03-17T07:52:50.076Z,16.07
2018-03-17T07:55:18.111Z,17.57
2018-03-17T07:57:46.271Z,16.50
2018-03-17T08:00:14.142Z,16.73
2018-03-17T08:02:41.922Z,15.70
2018-03-17T08:05:09.972Z,15.63
2018-03-17T08:07:37.706Z,15.90
2018-03-17T08:10:05.554Z,16.27
2018-03-17T08:12:33.296Z,16.73
2018-03-17T08:15:01.142Z,18.17
2018-03-17T08:17:28.956Z,16.27
2018-03-17T08:19:57.036Z,16.80
2018-03-17T08:22:24.899Z,17.23
2018-03-17T08:24:53.467Z,20.20
2018-03-17T08:27:21.260Z,17.03
2018-03-17T08:29:49.067Z,15.37
2018-03-17T08:32:16.905Z,16.07
2018-03-17T08:34:44.880Z,17.70
2018-03-17T08:37:12.714Z,13.20
2018-03-17T08:39:40.548Z,15.10
2018-03-17T08:42:08.390Z,20.47
2018-03-17T08:44:36.138Z,14.17
2018-03-17T08:47:03.978Z,18.20
2018-03-17T08:49:32.039Z,16.00
2018-03-17T08:51:59.833Z,14.75
2018-03-17T08:54:27.702Z,13.80
2018-03-17T08:56:55.483Z,13.50
2018-03-17T08:59:23.256Z,14.40
2018-03-17T09:01:51.097Z,13.40
2018-03-17T09:04:18.851Z,13.17
2018-03-17T09:06:46.677Z,14.60
2018-03-17T09:09:14.615Z,16.77
2018-03-17T09:11:43.281Z,15.37
2018-03-17T09:14:11.144Z,14.00
2018-03-17T09:16:38.864Z,14.87
2018-03-17T09:19:07.562Z,16.83
2018-03-17T09:21:35.422Z,18.80
2018-03-17T09:24:03.380Z,14.40
2018-03-17T09:26:31.163Z,15.00
2018-03-17T09:29:00.236Z,17.03
2018-03-17T09:31:28.204Z,17.70
2018-03-17T09:33:58.328Z,16.57
2018-03-17T09:36:26.958Z,15.77
2018-03-17T09:38:54.972Z,17.13
2018-03-17T09:41:22.782Z,19.33
2018-03-17T09:43:50.673Z,14.40
2018-03-17T09:46:18.468Z,15.43
2018-03-17T09:48:46.233Z,17.70
2018-03-17T09:51:14.093Z,14.67
2018-03-17T09:53:41.913Z,14.97
2018-03-17T09:56:10.567Z,14.97
2018-03-17T09:58:38.317Z,16.63
2018-03-17T10:01:06.660Z,14.70
2018-03-17T10:03:34.403Z,11.20
2018-03-17T10:06:04.888Z,10.97
2018-03-17T10:08:32.689Z,12.33
2018-03-17T10:11:00.399Z,12.80
2018-03-17T10:13:28.937Z,11.17
2018-03-17T10:15:56.702Z,10.90
2018-03-17T10:18:24.573Z,13.43
2018-03-17T10:20:53.141Z,11.60
2018-03-17T10:23:21.090Z,12.03
2018-03-17T10:25:48.901Z,11.63
2018-03-17T10:28:16.691Z,11.63
2018-03-17T10:30:44.484Z,17.73
2018-03-17T10:33:12.246Z,13.67
2018-03-17T10:35:39.985Z,10.50
2018-03-17T10:38:08.066Z,12.30
2018-03-17T10:40:35.905Z,12.43
2018-03-17T10:43:03.688Z,12.10
2018-03-17T10:45:31.540Z,10.40
2018-03-17T10:47:59.326Z,11.80
2018-03-17T10:50:27.257Z,12.90
2018-03-17T10:52:55.874Z,16.30
2018-03-17T10:55:23.678Z,15.50
2018-03-17T10:57:51.563Z,12.80
2018-03-17T11:00:24.865Z,13.90
2018-03-17T11:02:52.798Z,13.57
2018-03-17T11:05:20.605Z,10.83
2018-03-17T11:07:48.351Z,13.07
2018-03-17T11:10:16.210Z,13.27
2018-03-17T11:12:44.045Z,10.77
2018-03-17T11:15:11.801Z,12.30
2018-03-17T11:17:39.530Z,12.30
2018-03-17T11:20:08.370Z,12.03
2018-03-17T11:22:36.160Z,13.57
2018-03-17T11:25:03.996Z,10.63
2018-03-17T11:27:32.733Z,14.13
2018-03-17T11:30:00.633Z,13.40
2018-03-17T11:32:28.594Z,10.80
2018-03-17T11:34:56.374Z,12.13
2018-03-17T11:37:24.320Z,11.40
2018-03-17T11:39:52.147Z,15.23
2018-03-17T11:42:20.039Z,16.60
2018-03-17T11:44:48.588Z,11.13
2018-03-17T11:47:16.396Z,12.23
2018-03-17T11:49:44.218Z,9.87
2018-03-17T11:52:12.009Z,11.30
2018-03-17T11:54:39.917Z,11.13
2018-03-17T11:57:07.722Z,9.50
2018-03-17T11:59:36.468Z,9.80
2018-03-17T12:02:04.282Z,9.97
2018-03-17T12:04:32.033Z,9.50
2018-03-17T12:06:59.777Z,10.33
2018-03-17T12:09:27.594Z,11.23
2018-03-17T12:11:55.316Z,8.20
2018-03-17T12:14:23.155Z,13.83
2018-03-17T12:16:51.726Z,9.63
2018-03-17T12:19:19.465Z,8.60
2018-03-17T12:21:47.185Z,8.00
2018-03-17T12:24:14.943Z,8.03
2018-03-17T12:26:42.657Z,9.13
2018-03-17T12:29:10.371Z,8.50
2018-03-17T12:31:38.939Z,9.27
2018-03-17T12:34:06.713Z,8.80
2018-03-17T12:36:34.494Z,10.77
2018-03-17T12:39:02.221Z,9.40
2018-03-17T12:41:30.025Z,8.47
2018-03-17T12:43:57.851Z,9.43
2018-03-17T12:46:27.339Z,8.07
2018-03-17T12:48:55.301Z,12.00
2018-03-17T12:51:23.025Z,8.40
2018-03-17T12:53:50.823Z,11.10
2018-03-17T12:56:18.772Z,11.10
2018-03-17T12:58:46.542Z,9.10
2018-03-17T13:01:14.321Z,9.63
2018-03-17T13:03:42.075Z,9.07
2018-03-17T13:06:09.810Z,8.90
2018-03-17T13:08:37.640Z,12.93
2018-03-17T13:11:05.404Z,9.50
2018-03-17T13:13:33.115Z,7.87
2018-03-17T13:16:00.900Z,9.83
2018-03-17T13:18:28.654Z,6.83
2018-03-17T13:20:56.429Z,9.20
2018-03-17T13:23:24.188Z,8.90
2018-03-17T13:25:51.912Z,12.53
2018-03-17T13:28:27.491Z,8.77
2018-03-17T13:30:55.271Z,9.07
2018-03-17T13:33:23.054Z,7.73
2018-03-17T13:36:02.646Z,7.47
2018-03-17T13:38:30.372Z,7.67
2018-03-17T13:40:58.221Z,6.10
2018-03-17T13:43:25.995Z,7.17
2018-03-17T13:45:53.734Z,9.17
2018-03-17T13:48:21.651Z,6.87
2018-03-17T13:50:50.239Z,7.30
2018-03-17T13:53:18.016Z,7.83
2018-03-17T13:55:46.659Z,7.67
2018-03-17T13:58:14.485Z,8.20
2018-03-17T14:00:42.203Z,10.23
2018-03-17T14:03:09.977Z,7.70
2018-03-17T14:05:37.940Z,6.50
2018-03-17T14:08:05.675Z,7.83
2018-03-17T14:10:33.409Z,8.77
2018-03-17T14:13:01.235Z,9.73
2018-03-17T14:18:02.846Z,10.53
2018-03-17T14:20:30.666Z,8.33
2018-03-17T14:22:58.404Z,9.67
2018-03-17T14:25:26.188Z,8.40
2018-03-17T14:27:53.991Z,7.60
2018-03-17T14:30:21.808Z,10.87
2018-03-17T14:32:50.398Z,8.37
2018-03-17T14:35:18.273Z,9.53
2018-03-17T14:37:46.077Z,8.80
2018-03-17T14:40:13.888Z,8.40
2018-03-17T14:42:41.627Z,8.93
2018-03-17T14:45:09.392Z,9.37
2018-03-17T14:47:37.132Z,10.70
2018-03-17T14:50:04.909Z,8.93
2018-03-17T14:52:32.728Z,8.90
2018-03-17T14:55:00.478Z,9.17
2018-03-17T14:57:28.235Z,9.40
2018-03-17T14:59:56.023Z,9.00
2018-03-17T15:02:23.873Z,8.70
2018-03-17T15:04:52.388Z,10.03
2018-03-17T15:07:20.202Z,9.43
2018-03-17T15:09:47.996Z,10.10
2018-03-17T15:12:15.801Z,12.73
2018-03-17T15:14:43.699Z,10.30
2018-03-17T15:17:11.519Z,8.30
2018-03-17T15:19:39.227Z,10.80
2018-03-17T15:22:06.988Z,9.23
2018-03-17T15:24:34.749Z,11.17
2018-03-17T15:27:02.571Z,10.10
2018-03-17T15:29:30.348Z,9.17
2018-03-17T15:31:58.161Z,9.80
2018-03-17T15:34:25.931Z,8.10
2018-03-17T15:36:55.072Z,8.77
2018-03-17T15:39:22.949Z,9.70
2018-03-17T15:41:50.724Z,8.30
2018-03-17T15:44:18.521Z,9.67
2018-03-17T15:46:46.252Z,7.47
2018-03-17T15:49:14.340Z,7.90
2018-03-17T15:51:42.140Z,8.80
2018-03-17T15:54:09.905Z,9.27
2018-03-17T15:56:37.690Z,11.87
2018-03-17T15:59:05.534Z,9.30
2018-03-17T16:01:33.315Z,9.10
2018-03-17T16:04:01.107Z,8.03
2018-03-17T16:06:29.645Z,8.30
2018-03-17T16:08:57.439Z,7.83
2018-03-17T16:11:25.909Z,7.50
2018-03-17T16:13:53.652Z,7.97
2018-03-17T16:16:21.422Z,7.57
2018-03-17T16:18:49.241Z,8.10
2018-03-17T16:21:17.784Z,7.60
2018-03-17T16:23:45.581Z,7.30
2018-03-17T16:26:13.359Z,7.73
2018-03-17T16:28:41.294Z,7.83
2018-03-17T16:31:09.130Z,9.13
2018-03-17T16:33:36.883Z,9.30
2018-03-17T16:36:04.668Z,9.87
2018-03-17T16:38:32.724Z,8.90
2018-03-17T16:41:00.504Z,9.10
2018-03-17T16:43:28.289Z,10.57
2018-03-17T16:45:56.119Z,9.20
2018-03-17T16:48:23.911Z,9.80
2018-03-17T16:50:51.694Z,9.47
2018-03-17T16:53:19.532Z,11.90
2018-03-17T16:55:47.337Z,8.93
2018-03-17T16:58:15.054Z,8.77
2018-03-17T17:00:42.805Z,8.37
2018-03-17T17:03:11.486Z,11.20
2018-03-17T17:05:40.023Z,10.30
2018-03-17T17:08:07.837Z,10.03
2018-03-17T17:10:35.623Z,10.97
2018-03-17T17:13:04.133Z,8.33
2018-03-17T17:15:31.932Z,7.30
2018-03-17T17:17:59.717Z,12.13
2018-03-17T17:20:27.458Z,7.43
2018-03-17T17:22:55.239Z,7.90
2018-03-17T17:25:23.036Z,8.53
2018-03-17T17:27:50.907Z,8.90
2018-03-17T17:30:18.682Z,10.10
2018-03-17T17:32:46.442Z,7.67
2018-03-17T17:35:14.189Z,9.00
2018-03-17T17:37:41.933Z,7.00
2018-03-17T17:40:09.728Z,6.87
2018-03-17T17:42:37.554Z,7.00
2018-03-17T17:45:05.418Z,8.83
2018-03-17T17:47:33.142Z,6.50
2018-03-17T17:50:01.762Z,8.90
2018-03-17T17:52:29.529Z,8.97
2018-03-17T17:54:57.324Z,7.27
2018-03-17T17:57:25.120Z,6.20
2018-03-17T17:59:53.676Z,6.90
2018-03-17T18:02:21.507Z,7.83
2018-03-17T18:04:49.277Z,7.13
2018-03-17T18:07:17.052Z,6.73
2018-03-17T18:09:44.884Z,6.83
2018-03-17T18:12:13.478Z,6.83
2018-03-17T18:14:41.278Z,6.87
2018-03-17T18:17:09.064Z,7.83
2018-03-17T18:19:36.887Z,6.53
2018-03-17T18:22:04.699Z,8.63
2018-03-17T18:24:32.537Z,6.80
2018-03-17T18:27:00.294Z,10.83
2018-03-17T18:29:28.038Z,8.47
2018-03-17T18:31:55.845Z,11.20
2018-03-17T18:34:23.654Z,7.00
2018-03-17T18:36:51.523Z,10.20
2018-03-17T18:39:19.369Z,7.10
2018-03-17T18:41:47.250Z,7.33
2018-03-17T18:44:15.044Z,7.87
2018-03-17T18:46:42.802Z,7.13
2018-03-17T18:49:10.564Z,9.27
2018-03-17T18:51:38.308Z,6.03
2018-03-17T18:54:06.076Z,7.73
2018-03-17T18:56:37.158Z,6.90
2018-03-17T18:59:06.495Z,7.70
2018-03-17T19:01:34.262Z,6.90
2018-03-17T19:04:02.125Z,8.70
2018-03-17T19:06:29.880Z,7.90
2018-03-17T19:08:57.655Z,6.97
2018-03-17T19:11:25.475Z,6.97
2018-03-17T19:13:53.478Z,6.37
2018-03-17T19:16:22.598Z,7.67
2018-03-17T19:18:50.397Z,7.20
2018-03-17T19:21:18.210Z,8.07
2018-03-17T19:23:45.958Z,8.97
2018-03-17T19:26:18.399Z,6.90
2018-03-17T19:28:46.209Z,9.33
2018-03-17T19:31:13.981Z,6.53
2018-03-17T19:33:41.708Z,8.40
2018-03-17T19:36:09.470Z,6.77
2018-03-17T19:38:37.247Z,7.57
2018-03-17T19:41:05.039Z,9.00
2018-03-17T19:43:32.827Z,8.87
2018-03-17T19:46:01.641Z,10.13
2018-03-17T19:48:29.396Z,6.60
2018-03-17T19:50:57.186Z,8.20
2018-03-17T19:53:24.994Z,6.30
2018-03-17T19:55:52.806Z,6.80
2018-03-17T19:58:20.523Z,8.20
2018-03-17T20:00:48.352Z,3.60
2018-03-17T20:03:16.192Z,6.60
2018-03-17T20:05:43.993Z,11.83
2018-03-17T20:08:11.811Z,7.13
2018-03-17T20:10:40.401Z,7.87
2018-03-17T20:13:08.264Z,6.27
2018-03-17T20:15:36.867Z,5.40
2018-03-17T20:18:04.756Z,5.77
2018-03-17T20:20:33.286Z,5.87
2018-03-17T20:23:07.215Z,4.30
2018-03-17T20:25:37.048Z,4.07
2018-03-17T20:28:10.414Z,2.33
2018-03-17T20:30:39.063Z,3.20
2018-03-17T20:34:55.201Z,2.80
2018-03-17T20:37:23.003Z,1.77
2018-03-17T20:39:52.064Z,2.00
2018-03-17T20:42:19.871Z,3.00
2018-03-17T20:44:48.411Z,3.70
2018-03-17T20:47:16.186Z,4.67
2018-03-17T20:49:43.955Z,3.53
2018-03-17T20:52:11.688Z,1.67
2018-03-17T20:54:39.481Z,1.93
2018-03-17T20:57:07.295Z,1.60
2018-03-17T20:59:35.056Z,1.30
2018-03-17T21:02:02.853Z,2.23
2018-03-17T21:04:30.715Z,3.93
2018-03-17T21:06:59.743Z,2.67
2018-03-17T21:09:27.547Z,2.30
2018-03-17T21:11:56.138Z,3.33
2018-03-17T21:14:23.901Z,2.70
2018-03-17T21:16:51.655Z,4.10
2018-03-17T21:19:19.557Z,4.90
2018-03-17T21:21:49.279Z,3.00
2018-03-17T21:24:17.019Z,2.57
2018-03-17T21:26:44.846Z,9.70
2018-03-17T21:29:12.588Z,5.73
2018-03-17T21:31:40.399Z,2.37
2018-03-17T21:34:08.269Z,2.37
2018-03-17T21:36:36.060Z,4.87
2018-03-17T21:39:04.655Z,2.43
2018-03-17T21:41:32.515Z,2.20
2018-03-17T21:44:00.231Z,3.50
2018-03-17T21:46:28.045Z,6.27
2018-03-17T21:48:55.794Z,2.77
2018-03-17T21:51:24.413Z,4.60
2018-03-17T21:53:52.269Z,4.93
2018-03-17T21:56:20.751Z,3.50
2018-03-17T21:58:48.549Z,2.03
2018-03-17T22:01:16.322Z,3.97
2018-03-17T22:03:44.091Z,2.57
2018-03-17T22:06:11.878Z,2.07
2018-03-17T22:08:39.643Z,2.93
2018-03-17T22:11:07.428Z,3.27
2018-03-17T22:13:35.204Z,4.20
2018-03-17T22:16:02.987Z,7.77
2018-03-17T22:18:30.712Z,5.87
2018-03-17T22:20:58.497Z,3.90
2018-03-17T22:23:26.249Z,4.40
2018-03-17T22:25:54.024Z,3.80
2018-03-17T22:28:21.828Z,4.97
2018-03-17T22:30:49.546Z,4.83
2018-03-17T22:33:17.308Z,3.53
2018-03-17T22:35:45.085Z,6.80
2018-03-17T22:38:12.827Z,5.70
2018-03-17T22:40:40.603Z,3.70
2018-03-17T22:43:08.420Z,6.53
2018-03-17T22:45:36.196Z,3.57
2018-03-17T22:48:03.969Z,9.87
2018-03-17T22:50:31.784Z,4.70
2018-03-17T22:52:59.648Z,3.07
2018-03-17T22:55:27.385Z,2.93
2018-03-17T22:57:58.188Z,4.07
2018-03-17T23:00:28.177Z,5.93
2018-03-17T23:02:55.944Z,5.10
2018-03-17T23:05:23.660Z,7.57
2018-03-17T23:07:51.427Z,5.43
2018-03-17T23:10:19.277Z,2.33
2018-03-17T23:12:47.050Z,4.33
2018-03-17T23:15:14.871Z,3.63
2018-03-17T23:17:42.678Z,5.10
2018-03-17T23:20:11.254Z,5.40
2018-03-17T23:22:39.604Z,9.30
2018-03-17T23:25:07.362Z,10.60
2018-03-17T23:27:35.474Z,6.90
2018-03-17T23:30:03.265Z,4.27
2018-03-17T23:32:31.098Z,5.00
2018-03-17T23:34:58.927Z,6.97
2018-03-17T23:37:26.696Z,6.17
2018-03-17T23:39:54.463Z,4.20
2018-03-17T23:42:23.042Z,6.20
2018-03-17T23:44:51.538Z,2.33
2018-03-17T23:47:20.489Z,2.90
2018-03-17T23:49:49.075Z,4.40
2018-03-17T23:52:16.840Z,7.50
2018-03-17T23:54:44.633Z,3.43
2018-03-17T23:57:13.180Z,8.07
2018-03-17T23:59:41.023Z,8.77
